Etusivu
METAR-TAF:

METAR-TAF

Lentoasemat :

Curaçao, Alankomaiden Antillit

Leveyspiiri: 12-12N, Pituuspiiri: 068-58W, korkeus merenpinnasta: 9 m

Tämänhetkinen sää

Tämä raportti tehtiin 41 minuuttia sitten, kello 21.00 UTC
Tuuli 10 kn idästä
Lämpötila 30°C
Kosteus 75%
Ilmanpaine 1011 hPa
Näkyvyys 10 km tai enemmän
Muutamia pilviä 1800 ft:n korkeudessa

METAR: TNCC 212100Z 09010KT 9999 FEW018 30/25 Q1011 NOSIG

Aika: 17:41 (21:41 UTC)

Sääennuste

Tämä raportti tehtiin 5 tuntia ja 41 minuuttia sitten, kello 16.00 UTC
Ennuste voimassa 21. päivästä klo 18 UTC - 22. päivään klo 18 UTC
Tuuli 12 kn idästä/kaakosta
Näkyvyys 10 km tai enemmän
Hajanaisia pilviä 2000 ft:n korkeudessa
Todennäköisyys 30% :
Ajoittain
21. päivästä klo 18 UTC - 21. päivään klo 20 UTC
Hajonneita pilviä 1500 ft:n korkeudessa

TAF: TNCC 211600Z 2118/2218 12012KT 9999 SCT020 PROB30 TEMPO 2118/2120 BKN015

Säähavainnot ja -ennusteet yli 4000 lentoasemalta (METAR- ja TAF-raportit).

Käytössä olevat sääasemat on merkitty karttaan keltaisilla ja punaisilla pisteillä.

Aseta hiiri pisteen päälle nähdäksesi sääaseman nimen.

Klikkaa sitten nähdäksesi säähavainnot ja -ennusteet.

Kartan vaihtaminen: klikkaa mustalla rastilla varustettuja vihreitä pisteitä, niin voit zoomata sisään; viivalla varustettua vihreää pistettä, niin voit zoomata ulos tai vihreitä nuolia, niin pääset viereisille kartoille.


METAR-TAF: